createdAt,value
2019-01-23T00:00:31.425Z,38.30
2019-01-23T00:01:22.494Z,40.73
2019-01-23T00:01:56.063Z,41.15
2019-01-23T00:02:29.872Z,40.80
2019-01-23T00:03:03.852Z,43.55
2019-01-23T00:03:37.714Z,38.58
2019-01-23T00:04:11.396Z,39.88
2019-01-23T00:04:45.033Z,41.83
2019-01-23T00:05:18.726Z,43.15
2019-01-23T00:05:52.376Z,42.93
2019-01-23T00:06:26.303Z,43.08
2019-01-23T00:06:59.937Z,40.40
2019-01-23T00:07:33.642Z,41.25
2019-01-23T00:08:07.388Z,44.25
2019-01-23T00:08:41.364Z,41.63
2019-01-23T00:09:15.242Z,42.67
2019-01-23T00:09:48.845Z,40.73
2019-01-23T00:10:22.437Z,40.30
2019-01-23T00:10:56.147Z,40.73
2019-01-23T00:11:29.925Z,43.15
2019-01-23T00:12:03.635Z,41.60
2019-01-23T00:12:37.245Z,44.55
2019-01-23T00:13:10.961Z,43.58
2019-01-23T00:13:44.538Z,43.10
2019-01-23T00:14:18.232Z,42.78
2019-01-23T00:14:51.826Z,43.02
2019-01-23T00:15:25.448Z,43.58
2019-01-23T00:15:59.130Z,47.25
2019-01-23T00:16:32.764Z,45.40
2019-01-23T00:17:06.421Z,43.80
2019-01-23T00:17:40.042Z,43.35
2019-01-23T00:18:13.551Z,43.60
2019-01-23T00:18:47.188Z,43.25
2019-01-23T00:19:20.804Z,43.70
2019-01-23T00:19:54.390Z,44.85
2019-01-23T00:20:28.922Z,44.25
2019-01-23T00:21:02.517Z,45.40
2019-01-23T00:21:36.174Z,44.08
2019-01-23T00:22:09.858Z,44.38
2019-01-23T00:22:43.871Z,47.98
2019-01-23T00:23:17.693Z,43.73
2019-01-23T00:23:51.299Z,44.75
2019-01-23T00:24:25.005Z,45.45
2019-01-23T00:24:58.568Z,45.73
2019-01-23T00:25:32.236Z,45.55
2019-01-23T00:26:06.136Z,44.23
2019-01-23T00:26:41.124Z,43.45
2019-01-23T00:27:14.872Z,44.93
2019-01-23T00:27:48.662Z,44.38
2019-01-23T00:28:22.324Z,46.08
2019-01-23T00:28:56.013Z,47.05
2019-01-23T00:29:29.614Z,45.20
2019-01-23T00:30:03.220Z,43.10
2019-01-23T00:30:37.014Z,47.23
2019-01-23T00:31:10.569Z,43.80
2019-01-23T00:31:44.293Z,45.40
2019-01-23T00:32:17.979Z,43.68
2019-01-23T00:32:51.502Z,44.95
2019-01-23T00:33:25.537Z,45.70
2019-01-23T00:33:59.290Z,44.23
2019-01-23T00:34:32.977Z,44.23
2019-01-23T00:35:06.610Z,43.10
2019-01-23T00:35:40.204Z,43.23
2019-01-23T00:36:13.772Z,44.20
2019-01-23T00:36:47.380Z,44.25
2019-01-23T00:37:21.026Z,46.25
2019-01-23T00:37:54.617Z,45.83
2019-01-23T00:38:28.574Z,48.80
2019-01-23T00:39:02.778Z,45.48
2019-01-23T00:39:36.665Z,45.70
2019-01-23T00:40:10.801Z,44.67
2019-01-23T00:40:44.459Z,45.15
2019-01-23T00:41:18.211Z,43.02
2019-01-23T00:41:51.797Z,45.98
2019-01-23T00:42:25.422Z,45.58
2019-01-23T00:42:59.095Z,45.25
2019-01-23T00:43:32.703Z,44.20
2019-01-23T00:44:06.335Z,45.15
2019-01-23T00:44:39.914Z,45.90
2019-01-23T00:45:13.685Z,45.00
2019-01-23T00:45:47.398Z,45.90
2019-01-23T00:46:21.119Z,44.00
2019-01-23T00:46:54.718Z,41.98
2019-01-23T00:47:28.359Z,43.90
2019-01-23T00:48:02.097Z,46.42
2019-01-23T00:48:35.704Z,44.63
2019-01-23T00:49:09.362Z,43.38
2019-01-23T00:49:43.013Z,47.30
2019-01-23T00:50:16.645Z,43.00
2019-01-23T00:50:50.275Z,46.05
2019-01-23T00:51:23.933Z,44.23
2019-01-23T00:51:57.610Z,43.23
2019-01-23T00:52:31.308Z,45.40
2019-01-23T00:53:04.882Z,43.55
2019-01-23T00:53:38.590Z,47.75
2019-01-23T00:54:12.567Z,44.33
2019-01-23T00:54:46.394Z,43.48
2019-01-23T00:55:19.961Z,44.20
2019-01-23T00:55:53.644Z,44.38
2019-01-23T00:56:27.259Z,47.83
2019-01-23T00:57:00.810Z,43.30
2019-01-23T00:57:34.455Z,41.88
2019-01-23T00:58:08.074Z,43.75
2019-01-23T00:58:41.588Z,42.70
2019-01-23T00:59:15.167Z,43.87
2019-01-23T00:59:48.754Z,42.73
2019-01-23T01:00:23.308Z,43.73
2019-01-23T01:00:56.863Z,44.58
2019-01-23T01:01:30.542Z,44.50
2019-01-23T01:02:04.741Z,46.00
2019-01-23T01:02:38.571Z,43.45
2019-01-23T01:03:12.158Z,44.35
2019-01-23T01:03:45.750Z,44.25
2019-01-23T01:04:19.365Z,45.23
2019-01-23T01:04:52.997Z,44.00
2019-01-23T01:05:26.805Z,45.58
2019-01-23T01:06:00.499Z,43.55
2019-01-23T01:06:34.078Z,43.78
2019-01-23T01:07:07.582Z,44.88
2019-01-23T01:07:41.262Z,44.50
2019-01-23T01:08:14.830Z,42.62
2019-01-23T01:08:48.375Z,44.03
2019-01-23T01:09:21.865Z,42.13
2019-01-23T01:09:56.684Z,42.80
2019-01-23T01:10:30.365Z,43.05
2019-01-23T01:11:03.895Z,41.42
2019-01-23T01:11:37.463Z,44.03
2019-01-23T01:12:11.069Z,43.90
2019-01-23T01:12:44.937Z,43.80
2019-01-23T01:13:18.553Z,44.70
2019-01-23T01:13:52.147Z,44.23
2019-01-23T01:14:25.804Z,42.17
2019-01-23T01:14:59.382Z,44.85
2019-01-23T01:15:32.999Z,45.88
2019-01-23T01:16:06.600Z,44.88
2019-01-23T01:16:40.210Z,43.10
2019-01-23T01:17:13.865Z,43.65
2019-01-23T01:17:47.492Z,42.30
2019-01-23T01:18:21.249Z,45.28
2019-01-23T01:18:54.823Z,44.03
2019-01-23T01:19:28.452Z,42.65
2019-01-23T01:20:02.067Z,42.10
2019-01-23T01:20:35.695Z,45.67
2019-01-23T01:21:09.253Z,43.78
2019-01-23T01:21:42.874Z,43.08
2019-01-23T01:22:16.446Z,43.83
2019-01-23T01:22:49.985Z,44.83
2019-01-23T01:23:23.564Z,43.83
2019-01-23T01:23:57.056Z,40.75
2019-01-23T01:24:30.662Z,40.70
2019-01-23T01:25:06.228Z,44.25
2019-01-23T01:25:40.113Z,43.00
2019-01-23T01:26:13.689Z,42.95
2019-01-23T01:26:47.279Z,43.90
2019-01-23T01:27:20.765Z,44.27
2019-01-23T01:27:54.309Z,41.30
2019-01-23T01:28:27.867Z,43.42
2019-01-23T01:29:01.469Z,42.75
2019-01-23T01:29:34.965Z,43.80
2019-01-23T01:30:10.822Z,41.68
2019-01-23T01:30:44.409Z,43.85
2019-01-23T01:31:17.935Z,41.58
2019-01-23T01:31:51.536Z,42.65
2019-01-23T01:32:25.130Z,42.48
2019-01-23T01:32:58.697Z,43.13
2019-01-23T01:33:34.006Z,41.95
2019-01-23T01:34:07.407Z,43.75
2019-01-23T01:34:40.986Z,42.95
2019-01-23T01:35:14.715Z,45.15
2019-01-23T01:35:48.318Z,41.33
2019-01-23T01:36:21.920Z,42.67
2019-01-23T01:36:55.489Z,42.98
2019-01-23T01:37:29.002Z,42.95
2019-01-23T01:38:02.599Z,42.70
2019-01-23T01:38:43.837Z,43.60
2019-01-23T01:39:18.358Z,42.78
2019-01-23T01:39:51.842Z,41.53
2019-01-23T01:40:25.466Z,43.83
2019-01-23T01:40:59.057Z,41.80
2019-01-23T01:41:32.564Z,44.55
2019-01-23T01:42:06.168Z,41.58
2019-01-23T01:42:43.849Z,40.98
2019-01-23T01:43:21.221Z,40.83
2019-01-23T01:43:57.985Z,44.30
2019-01-23T01:44:31.595Z,42.75
2019-01-23T01:45:05.767Z,41.08
2019-01-23T01:45:39.272Z,42.15
2019-01-23T01:46:12.844Z,43.55
2019-01-23T01:46:46.414Z,42.83
2019-01-23T01:47:20.020Z,44.35
2019-01-23T01:47:53.605Z,43.15
2019-01-23T01:48:27.671Z,40.85
2019-01-23T01:49:01.206Z,43.58
2019-01-23T01:49:34.796Z,41.98
2019-01-23T01:50:10.001Z,42.25
2019-01-23T01:50:43.510Z,39.13
2019-01-23T01:51:17.102Z,41.88
2019-01-23T01:51:50.664Z,42.53
2019-01-23T01:52:24.250Z,38.98
2019-01-23T01:52:57.822Z,41.58
2019-01-23T01:53:31.365Z,40.17
2019-01-23T01:54:05.085Z,40.88
2019-01-23T01:54:38.704Z,39.88
2019-01-23T01:55:12.258Z,40.65
2019-01-23T01:55:45.867Z,42.33
2019-01-23T01:56:19.390Z,39.58
2019-01-23T01:56:52.856Z,40.33
2019-01-23T01:57:26.462Z,41.15
2019-01-23T01:58:01.262Z,41.73
2019-01-23T01:58:34.801Z,39.60
2019-01-23T01:59:08.393Z,41.88
2019-01-23T01:59:41.998Z,41.18
2019-01-23T02:00:16.749Z,41.35
2019-01-23T02:00:50.352Z,40.98
2019-01-23T02:01:23.999Z,43.08
2019-01-23T02:01:57.647Z,41.25
2019-01-23T02:02:31.230Z,40.20
2019-01-23T02:03:04.848Z,42.62
2019-01-23T02:03:38.423Z,41.15
2019-01-23T02:04:12.046Z,37.95
2019-01-23T02:04:45.618Z,40.50
2019-01-23T02:05:19.516Z,40.30
2019-01-23T02:05:53.086Z,39.55
2019-01-23T02:06:26.608Z,42.88
2019-01-23T02:07:00.174Z,40.17
2019-01-23T02:07:33.783Z,40.45
2019-01-23T02:08:07.269Z,38.05
2019-01-23T02:08:40.892Z,38.98
2019-01-23T02:09:14.398Z,38.53
2019-01-23T02:09:48.001Z,38.83
2019-01-23T02:10:21.808Z,39.15
2019-01-23T02:10:55.386Z,39.75
2019-01-23T02:11:29.032Z,38.92
2019-01-23T02:12:02.545Z,39.03
2019-01-23T02:12:36.154Z,40.12
2019-01-23T02:13:09.730Z,40.60
2019-01-23T02:13:43.314Z,42.80
2019-01-23T02:14:20.195Z,40.23
2019-01-23T02:14:55.360Z,40.70
2019-01-23T02:15:31.053Z,40.52
2019-01-23T02:16:06.437Z,37.55
2019-01-23T02:16:42.240Z,39.38
2019-01-23T02:17:15.824Z,37.03
2019-01-23T02:17:49.496Z,39.35
2019-01-23T02:18:23.025Z,39.23
2019-01-23T02:18:56.542Z,37.10
2019-01-23T02:19:30.157Z,36.45
2019-01-23T02:20:05.203Z,39.48
2019-01-23T02:20:38.702Z,38.98
2019-01-23T02:21:12.236Z,39.00
2019-01-23T02:21:45.818Z,38.53
2019-01-23T02:22:19.437Z,39.20
2019-01-23T02:22:53.015Z,38.02
2019-01-23T02:23:26.630Z,39.08
2019-01-23T02:24:00.301Z,38.70
2019-01-23T02:24:33.901Z,40.83
2019-01-23T02:25:07.465Z,38.60
2019-01-23T02:25:41.117Z,40.38
2019-01-23T02:26:14.650Z,38.50
2019-01-23T02:26:48.241Z,39.95
2019-01-23T02:27:21.833Z,40.00
2019-01-23T02:27:55.312Z,40.45
2019-01-23T02:28:28.913Z,37.80
2019-01-23T02:29:02.493Z,39.18
2019-01-23T02:29:36.074Z,39.88
2019-01-23T02:30:10.493Z,37.42
2019-01-23T02:30:44.017Z,38.28
2019-01-23T02:31:17.604Z,38.58
2019-01-23T02:31:51.098Z,37.60
2019-01-23T02:32:24.801Z,38.63
2019-01-23T02:32:58.384Z,38.15
2019-01-23T02:33:31.917Z,37.93
2019-01-23T02:34:05.498Z,39.80
2019-01-23T02:34:39.079Z,38.33
2019-01-23T02:35:12.805Z,39.70
2019-01-23T02:35:46.383Z,37.98
2019-01-23T02:36:19.967Z,40.45
2019-01-23T02:36:53.514Z,38.75
2019-01-23T02:37:27.118Z,37.40
2019-01-23T02:38:00.688Z,37.58
2019-01-23T02:38:34.293Z,40.23
2019-01-23T02:39:07.919Z,37.75
2019-01-23T02:39:41.468Z,37.88
2019-01-23T02:40:18.831Z,35.92
2019-01-23T02:40:52.433Z,40.17
2019-01-23T02:41:26.016Z,36.20
2019-01-23T02:41:59.610Z,37.40
2019-01-23T02:42:33.184Z,39.50
2019-01-23T02:43:06.730Z,38.53
2019-01-23T02:43:40.339Z,39.15
2019-01-23T02:44:13.910Z,38.02
2019-01-23T02:44:47.431Z,39.15
2019-01-23T02:45:21.494Z,38.30
2019-01-23T02:45:55.021Z,35.98
2019-01-23T02:46:28.595Z,39.10
2019-01-23T02:47:02.118Z,40.23
2019-01-23T02:47:35.750Z,38.02
2019-01-23T02:48:09.375Z,37.48
2019-01-23T02:48:42.946Z,39.53
2019-01-23T02:49:16.566Z,38.48
2019-01-23T02:49:50.136Z,37.50
2019-01-23T02:50:23.743Z,41.35
2019-01-23T02:50:57.308Z,38.08
2019-01-23T02:51:30.919Z,35.85
2019-01-23T02:52:04.487Z,39.23
2019-01-23T02:52:38.078Z,37.05
2019-01-23T02:53:11.704Z,38.15
2019-01-23T02:53:45.297Z,40.55
2019-01-23T02:54:18.883Z,39.38
2019-01-23T02:54:52.431Z,39.92
2019-01-23T02:55:26.022Z,37.15
2019-01-23T02:55:59.725Z,37.80
2019-01-23T02:56:33.355Z,37.85
2019-01-23T02:57:06.945Z,39.63
2019-01-23T02:57:40.576Z,36.05
2019-01-23T02:58:14.318Z,36.70
2019-01-23T02:58:47.863Z,35.52
2019-01-23T02:59:21.442Z,39.83
2019-01-23T02:59:55.067Z,35.23
2019-01-23T03:00:28.657Z,36.15
2019-01-23T03:01:02.289Z,37.83
2019-01-23T03:01:35.881Z,36.65
2019-01-23T03:02:09.450Z,36.77
2019-01-23T03:02:43.033Z,38.75
2019-01-23T03:03:16.518Z,38.33
2019-01-23T03:03:50.025Z,37.05
2019-01-23T03:04:23.615Z,36.98
2019-01-23T03:04:57.316Z,38.53
2019-01-23T03:05:30.890Z,38.75
2019-01-23T03:06:04.831Z,37.70
2019-01-23T03:06:38.386Z,37.78
2019-01-23T03:07:12.006Z,38.85
2019-01-23T03:07:45.577Z,37.73
2019-01-23T03:08:19.116Z,38.50
2019-01-23T03:08:52.629Z,37.25
2019-01-23T03:09:26.219Z,37.85
2019-01-23T03:09:59.805Z,37.67
2019-01-23T03:10:33.500Z,36.35
2019-01-23T03:11:07.054Z,39.10
2019-01-23T03:11:40.665Z,37.40
2019-01-23T03:12:14.256Z,37.95
2019-01-23T03:12:47.849Z,36.48
2019-01-23T03:13:21.742Z,37.55
2019-01-23T03:13:55.318Z,36.33
2019-01-23T03:14:28.917Z,37.13
2019-01-23T03:15:02.529Z,37.13
2019-01-23T03:15:36.195Z,37.95
2019-01-23T03:16:09.873Z,36.42
2019-01-23T03:16:43.518Z,35.92
2019-01-23T03:17:17.200Z,37.42
2019-01-23T03:17:50.860Z,40.52
2019-01-23T03:18:24.435Z,36.08
2019-01-23T03:18:58.030Z,35.58
2019-01-23T03:19:31.679Z,35.40
2019-01-23T03:20:06.158Z,36.58
2019-01-23T03:20:39.771Z,36.58
2019-01-23T03:21:13.428Z,36.40
2019-01-23T03:21:47.045Z,36.80
2019-01-23T03:22:20.633Z,36.50
2019-01-23T03:22:54.269Z,38.63
2019-01-23T03:23:27.918Z,40.28
2019-01-23T03:24:01.606Z,38.38
2019-01-23T03:24:35.188Z,36.25
2019-01-23T03:25:09.458Z,36.80
2019-01-23T03:25:42.974Z,36.73
2019-01-23T03:26:16.602Z,36.33
2019-01-23T03:26:50.150Z,36.35
2019-01-23T03:27:23.777Z,36.70
2019-01-23T03:27:57.354Z,39.88
2019-01-23T03:28:30.865Z,37.50
2019-01-23T03:29:04.477Z,35.92
2019-01-23T03:29:38.073Z,36.80
2019-01-23T03:30:15.811Z,36.10
2019-01-23T03:30:49.327Z,38.30
2019-01-23T03:31:22.957Z,34.08
2019-01-23T03:31:56.524Z,38.25
2019-01-23T03:32:30.134Z,38.20
2019-01-23T03:33:03.677Z,38.80
2019-01-23T03:33:37.203Z,40.40
2019-01-23T03:34:10.790Z,37.38
2019-01-23T03:34:44.409Z,37.38
2019-01-23T03:35:18.104Z,37.48
2019-01-23T03:35:51.697Z,36.55
2019-01-23T03:36:25.451Z,39.23
2019-01-23T03:36:59.119Z,38.02
2019-01-23T03:37:32.759Z,37.05
2019-01-23T03:38:06.371Z,37.28
2019-01-23T03:38:39.940Z,38.23
2019-01-23T03:39:13.530Z,39.08
2019-01-23T03:39:47.179Z,38.13
2019-01-23T03:40:21.202Z,40.25
2019-01-23T03:40:54.756Z,37.73
2019-01-23T03:41:28.374Z,37.10
2019-01-23T03:42:02.137Z,36.00
2019-01-23T03:42:35.734Z,38.05
2019-01-23T03:43:09.357Z,38.17
2019-01-23T03:43:42.935Z,37.20
2019-01-23T03:44:16.492Z,38.70
2019-01-23T03:44:50.070Z,41.05
2019-01-23T03:45:23.727Z,37.45
2019-01-23T03:45:57.396Z,38.42
2019-01-23T03:46:30.993Z,37.95
2019-01-23T03:47:04.773Z,36.50
2019-01-23T03:47:38.339Z,37.10
2019-01-23T03:48:11.913Z,36.77
2019-01-23T03:48:45.539Z,38.80
2019-01-23T03:49:19.133Z,39.18
2019-01-23T03:49:52.705Z,38.90
2019-01-23T03:50:26.311Z,39.25
2019-01-23T03:50:59.845Z,36.60
2019-01-23T03:51:33.469Z,37.33
2019-01-23T03:52:07.089Z,36.40
2019-01-23T03:52:40.723Z,36.25
2019-01-23T03:53:14.407Z,36.70
2019-01-23T03:53:47.965Z,36.77
2019-01-23T03:54:21.476Z,38.38
2019-01-23T03:54:55.099Z,38.70
2019-01-23T03:55:28.684Z,39.33
2019-01-23T03:56:02.437Z,39.15
2019-01-23T03:56:35.955Z,35.20
2019-01-23T03:57:09.489Z,39.05
2019-01-23T03:57:43.090Z,37.00
2019-01-23T03:58:16.589Z,38.75
2019-01-23T03:58:50.118Z,37.70
2019-01-23T03:59:23.707Z,37.75
2019-01-23T03:59:57.283Z,37.35
2019-01-23T04:00:30.771Z,34.67
2019-01-23T04:01:04.462Z,37.58
2019-01-23T04:01:38.044Z,36.85
2019-01-23T04:02:11.640Z,36.35
2019-01-23T04:02:45.299Z,38.80
2019-01-23T04:03:18.913Z,37.98
2019-01-23T04:03:52.458Z,38.00
2019-01-23T04:04:26.082Z,37.67
2019-01-23T04:04:59.684Z,36.30
2019-01-23T04:05:33.278Z,38.08
2019-01-23T04:06:06.851Z,37.53
2019-01-23T04:06:40.446Z,38.63
2019-01-23T04:07:14.020Z,36.30
2019-01-23T04:07:47.822Z,38.40
2019-01-23T04:08:21.431Z,36.38
2019-01-23T04:08:55.054Z,37.03
2019-01-23T04:09:28.676Z,35.43
2019-01-23T04:10:02.278Z,35.73
2019-01-23T04:10:37.390Z,37.70
2019-01-23T04:11:10.943Z,37.23
2019-01-23T04:11:44.486Z,37.50
2019-01-23T04:12:18.112Z,36.88
2019-01-23T04:12:51.668Z,39.18
2019-01-23T04:13:25.229Z,39.18
2019-01-23T04:13:58.786Z,36.73
2019-01-23T04:14:32.393Z,36.98
2019-01-23T04:15:06.675Z,35.00
2019-01-23T04:15:40.277Z,37.55
2019-01-23T04:16:13.839Z,35.38
2019-01-23T04:16:47.344Z,37.38
2019-01-23T04:17:20.848Z,39.20
2019-01-23T04:17:54.332Z,39.60
2019-01-23T04:18:28.157Z,34.60
2019-01-23T04:19:01.639Z,37.53
2019-01-23T04:19:35.201Z,36.20
2019-01-23T04:20:12.942Z,38.08
2019-01-23T04:20:46.428Z,36.68
2019-01-23T04:21:19.979Z,38.75
2019-01-23T04:21:53.508Z,38.02
2019-01-23T04:22:27.237Z,37.13
2019-01-23T04:23:00.829Z,38.78
2019-01-23T04:23:34.342Z,35.40
2019-01-23T04:24:07.858Z,35.88
2019-01-23T04:24:41.413Z,37.67
2019-01-23T04:25:14.914Z,38.13
2019-01-23T04:25:49.167Z,41.80
2019-01-23T04:26:22.646Z,38.38
2019-01-23T04:26:56.137Z,35.90
2019-01-23T04:27:29.626Z,38.80
2019-01-23T04:28:03.104Z,39.50
2019-01-23T04:28:36.684Z,38.20
2019-01-23T04:29:10.239Z,37.83
2019-01-23T04:29:43.721Z,37.70
2019-01-23T04:30:18.584Z,37.20
2019-01-23T04:30:52.137Z,36.95
2019-01-23T04:31:25.630Z,39.03
2019-01-23T04:31:59.136Z,36.30
2019-01-23T04:32:32.625Z,39.67
2019-01-23T04:33:06.160Z,37.60
2019-01-23T04:33:39.601Z,38.45
2019-01-23T04:34:13.184Z,36.73
2019-01-23T04:34:46.643Z,37.40
2019-01-23T04:35:20.360Z,38.05
2019-01-23T04:35:53.944Z,38.25
2019-01-23T04:36:27.528Z,40.08
2019-01-23T04:37:01.120Z,35.70
2019-01-23T04:37:34.704Z,39.15
2019-01-23T04:38:08.222Z,39.63
2019-01-23T04:38:41.760Z,37.42
2019-01-23T04:39:15.345Z,37.17
2019-01-23T04:39:48.754Z,39.53
2019-01-23T04:40:22.237Z,39.25
2019-01-23T04:40:55.782Z,37.40
2019-01-23T04:41:29.366Z,37.08
2019-01-23T04:42:02.802Z,37.65
2019-01-23T04:42:36.336Z,38.13
2019-01-23T04:43:09.822Z,35.50
2019-01-23T04:43:43.253Z,37.30
2019-01-23T04:44:16.797Z,37.90
2019-01-23T04:45:09.444Z,37.58
2019-01-23T04:45:42.958Z,36.93
2019-01-23T04:46:16.473Z,34.78
2019-01-23T04:46:49.986Z,36.77
2019-01-23T04:47:23.517Z,37.98
2019-01-23T04:47:57.059Z,39.15
2019-01-23T04:48:30.586Z,34.58
2019-01-23T04:49:04.155Z,36.70
2019-01-23T04:49:37.659Z,38.00
2019-01-23T04:50:11.768Z,38.78
2019-01-23T04:51:03.265Z,38.13
2019-01-23T04:51:59.033Z,37.58
2019-01-23T04:52:54.676Z,36.70
2019-01-23T04:53:32.953Z,36.98
2019-01-23T04:54:06.697Z,37.53
2019-01-23T04:54:40.216Z,38.88
2019-01-23T04:55:13.843Z,36.80
2019-01-23T04:55:47.434Z,38.42
2019-01-23T04:56:20.911Z,37.65
2019-01-23T04:56:54.501Z,36.45
2019-01-23T04:57:28.045Z,37.67
2019-01-23T04:58:01.543Z,36.38
2019-01-23T04:58:35.323Z,39.40
2019-01-23T04:59:08.847Z,38.00
2019-01-23T04:59:46.771Z,37.33
2019-01-23T05:00:20.696Z,38.75
2019-01-23T05:00:54.224Z,38.92
2019-01-23T05:01:27.810Z,37.78
2019-01-23T05:02:01.353Z,36.83
2019-01-23T05:02:34.778Z,38.40
2019-01-23T05:03:08.432Z,38.63
2019-01-23T05:03:41.949Z,36.75
2019-01-23T05:04:15.502Z,39.25
2019-01-23T05:04:49.021Z,36.75
2019-01-23T05:05:22.656Z,37.98
2019-01-23T05:05:56.252Z,38.85
2019-01-23T05:06:29.861Z,40.95
2019-01-23T05:07:03.364Z,38.92
2019-01-23T05:07:36.961Z,39.30
2019-01-23T05:08:10.453Z,39.15
2019-01-23T05:08:44.075Z,37.90
2019-01-23T05:09:17.692Z,39.90
2019-01-23T05:09:51.139Z,38.00
2019-01-23T05:10:24.638Z,38.17
2019-01-23T05:10:58.262Z,36.50
2019-01-23T05:11:31.936Z,37.85
2019-01-23T05:12:05.449Z,39.85
2019-01-23T05:12:38.981Z,39.20
2019-01-23T05:13:12.508Z,40.03
2019-01-23T05:13:46.048Z,38.75
2019-01-23T05:14:19.533Z,40.15
2019-01-23T05:14:53.156Z,38.78
2019-01-23T05:15:26.678Z,38.02
2019-01-23T05:16:00.301Z,38.48
2019-01-23T05:16:33.864Z,37.65
2019-01-23T05:17:07.471Z,39.48
2019-01-23T05:17:40.969Z,40.20
2019-01-23T05:18:14.405Z,38.53
2019-01-23T05:18:47.978Z,38.15
2019-01-23T05:19:21.423Z,39.40
2019-01-23T05:19:54.980Z,37.50
2019-01-23T05:20:28.410Z,43.13
2019-01-23T05:21:01.970Z,41.33
2019-01-23T05:21:35.529Z,40.63
2019-01-23T05:22:09.024Z,41.68
2019-01-23T05:22:42.541Z,39.67
2019-01-23T05:23:16.080Z,40.52
2019-01-23T05:23:49.558Z,40.63
2019-01-23T05:24:22.992Z,39.25
2019-01-23T05:24:56.532Z,40.20
2019-01-23T05:25:30.055Z,40.23
2019-01-23T05:26:03.693Z,40.05
2019-01-23T05:26:37.266Z,41.18
2019-01-23T05:27:10.848Z,40.10
2019-01-23T05:27:44.350Z,41.25
2019-01-23T05:28:17.954Z,38.60
2019-01-23T05:28:51.612Z,39.90
2019-01-23T05:29:25.148Z,39.13
2019-01-23T05:29:58.704Z,39.67
2019-01-23T05:30:32.223Z,40.73
2019-01-23T05:31:05.829Z,39.48
2019-01-23T05:31:39.376Z,39.15
2019-01-23T05:32:13.068Z,40.75
2019-01-23T05:32:46.566Z,37.83
2019-01-23T05:33:20.175Z,38.92
2019-01-23T05:33:53.749Z,40.28
2019-01-23T05:34:27.239Z,41.85
2019-01-23T05:35:00.679Z,42.53
2019-01-23T05:35:34.245Z,41.00
2019-01-23T05:36:07.937Z,39.10
2019-01-23T05:36:41.446Z,42.48
2019-01-23T05:37:14.949Z,39.20
2019-01-23T05:37:48.488Z,38.88
2019-01-23T05:38:22.349Z,39.80
2019-01-23T05:38:56.033Z,40.67
2019-01-23T05:39:29.808Z,41.13
2019-01-23T05:40:03.782Z,41.35
2019-01-23T05:40:37.360Z,39.48
2019-01-23T05:41:10.936Z,39.85
2019-01-23T05:41:44.412Z,40.10
2019-01-23T05:42:18.022Z,38.05
2019-01-23T05:42:51.536Z,39.67
2019-01-23T05:43:24.970Z,39.83
2019-01-23T05:43:58.469Z,39.27
2019-01-23T05:44:31.899Z,41.80
2019-01-23T05:45:05.653Z,39.10
2019-01-23T05:45:39.242Z,40.35
2019-01-23T05:46:14.013Z,39.98
2019-01-23T05:46:47.540Z,39.33
2019-01-23T05:47:21.170Z,39.63
2019-01-23T05:47:54.708Z,41.75
2019-01-23T05:48:28.252Z,40.15
2019-01-23T05:49:01.862Z,40.38
2019-01-23T05:49:35.408Z,39.88
2019-01-23T05:50:10.298Z,41.98
2019-01-23T05:50:43.862Z,37.67
2019-01-23T05:51:17.464Z,38.58
2019-01-23T05:51:50.992Z,38.95
2019-01-23T05:52:24.587Z,40.63
2019-01-23T05:52:58.029Z,41.05
2019-01-23T05:53:31.441Z,41.92
2019-01-23T05:54:04.930Z,43.75
2019-01-23T05:54:38.446Z,41.25
2019-01-23T05:55:12.415Z,44.90
2019-01-23T05:55:45.934Z,40.78
2019-01-23T05:56:19.394Z,40.88
2019-01-23T05:56:52.908Z,40.08
2019-01-23T05:57:26.488Z,41.10
2019-01-23T05:58:00.073Z,39.38
2019-01-23T05:58:33.490Z,39.50
2019-01-23T05:59:07.022Z,37.25
2019-01-23T05:59:40.559Z,39.73
2019-01-23T06:00:15.684Z,40.12
2019-01-23T06:00:49.345Z,39.27
2019-01-23T06:01:22.784Z,37.78
2019-01-23T06:01:56.890Z,38.55
2019-01-23T06:02:30.507Z,36.35
2019-01-23T06:03:04.137Z,38.80
2019-01-23T06:03:37.579Z,39.65
2019-01-23T06:04:11.128Z,39.05
2019-01-23T06:04:44.649Z,38.05
2019-01-23T06:05:18.690Z,40.80
2019-01-23T06:05:52.170Z,39.85
2019-01-23T06:06:25.768Z,38.25
2019-01-23T06:06:59.289Z,40.15
2019-01-23T06:07:33.188Z,38.78
2019-01-23T06:08:06.766Z,38.80
2019-01-23T06:08:40.277Z,38.17
2019-01-23T06:09:13.754Z,36.28
2019-01-23T06:09:47.296Z,37.33
2019-01-23T06:10:20.806Z,39.42
2019-01-23T06:10:54.345Z,39.20
2019-01-23T06:11:27.827Z,37.90
2019-01-23T06:12:01.307Z,36.90
2019-01-23T06:12:34.851Z,39.33
2019-01-23T06:13:08.465Z,40.38
2019-01-23T06:13:42.150Z,39.15
2019-01-23T06:14:15.928Z,37.93
2019-01-23T06:14:49.520Z,38.45
2019-01-23T06:15:23.044Z,39.83
2019-01-23T06:15:56.631Z,38.85
2019-01-23T06:16:30.132Z,36.20
2019-01-23T06:17:03.820Z,36.00
2019-01-23T06:17:37.565Z,36.53
2019-01-23T06:18:11.134Z,38.23
2019-01-23T06:18:44.721Z,38.08
2019-01-23T06:19:18.296Z,38.70
2019-01-23T06:19:51.910Z,40.85
2019-01-23T06:20:25.459Z,37.90
2019-01-23T06:20:59.046Z,35.17
2019-01-23T06:21:32.672Z,38.10
2019-01-23T06:22:07.483Z,37.90
2019-01-23T06:22:41.103Z,39.63
2019-01-23T06:23:14.694Z,37.42
2019-01-23T06:23:48.274Z,39.88
2019-01-23T06:24:21.782Z,37.90
2019-01-23T06:24:55.297Z,38.55
2019-01-23T06:25:28.905Z,39.65
2019-01-23T06:26:02.564Z,38.95
2019-01-23T06:26:36.287Z,37.50
2019-01-23T06:27:09.915Z,37.70
2019-01-23T06:27:43.599Z,41.25
2019-01-23T06:28:17.049Z,38.05
2019-01-23T06:28:50.566Z,39.98
2019-01-23T06:29:24.139Z,38.55
2019-01-23T06:29:57.636Z,41.05
2019-01-23T06:30:31.306Z,39.20
2019-01-23T06:31:04.817Z,40.03
2019-01-23T06:31:40.819Z,41.40
2019-01-23T06:32:14.478Z,38.35
2019-01-23T06:32:48.022Z,38.70
2019-01-23T06:33:21.555Z,38.40
2019-01-23T06:33:55.075Z,38.40
2019-01-23T06:34:28.487Z,40.38
2019-01-23T06:35:01.952Z,39.65
2019-01-23T06:35:35.646Z,38.75
2019-01-23T06:36:09.230Z,40.30
2019-01-23T06:36:42.717Z,36.13
2019-01-23T06:37:16.426Z,39.67
2019-01-23T06:37:49.996Z,42.73
2019-01-23T06:38:23.545Z,39.58
2019-01-23T06:38:57.052Z,39.33
2019-01-23T06:39:30.585Z,37.53
2019-01-23T06:40:04.860Z,39.70
2019-01-23T06:40:38.396Z,40.48
2019-01-23T06:41:12.052Z,40.50
2019-01-23T06:41:45.566Z,40.60
2019-01-23T06:42:19.203Z,40.63
2019-01-23T06:42:52.758Z,40.12
2019-01-23T06:43:26.343Z,40.28
2019-01-23T06:43:59.890Z,37.83
2019-01-23T06:44:33.565Z,41.75
2019-01-23T06:45:08.047Z,38.48
2019-01-23T06:45:41.973Z,40.88
2019-01-23T06:46:15.545Z,40.88
2019-01-23T06:46:49.126Z,40.55
2019-01-23T06:47:22.773Z,40.38
2019-01-23T06:47:56.332Z,41.75
2019-01-23T06:48:29.891Z,41.58
2019-01-23T06:49:03.527Z,40.92
2019-01-23T06:49:37.110Z,40.55
2019-01-23T06:50:12.266Z,39.00
2019-01-23T06:50:45.893Z,39.45
2019-01-23T06:51:19.318Z,40.08
2019-01-23T06:51:52.937Z,40.08
2019-01-23T06:52:26.424Z,40.63
2019-01-23T06:53:00.084Z,40.35
2019-01-23T06:53:33.619Z,41.45
2019-01-23T06:54:07.191Z,38.50
2019-01-23T06:54:40.685Z,42.27
2019-01-23T06:55:14.383Z,46.10
2019-01-23T06:55:47.961Z,39.50
2019-01-23T06:56:21.475Z,40.95
2019-01-23T06:56:55.256Z,40.30
2019-01-23T06:57:28.857Z,42.38
2019-01-23T06:58:02.481Z,39.48
2019-01-23T06:58:35.961Z,39.18
2019-01-23T06:59:09.504Z,41.48
2019-01-23T06:59:43.166Z,38.98
2019-01-23T07:00:17.713Z,41.23
2019-01-23T07:00:51.268Z,41.45
2019-01-23T07:01:27.108Z,41.10
2019-01-23T07:02:00.658Z,40.43
2019-01-23T07:02:34.157Z,41.40
2019-01-23T07:03:07.805Z,39.98
2019-01-23T07:03:41.257Z,37.67
2019-01-23T07:04:15.001Z,41.37
2019-01-23T07:04:48.563Z,41.28
2019-01-23T07:05:22.544Z,40.78
2019-01-23T07:05:56.050Z,41.95
2019-01-23T07:06:29.617Z,41.53
2019-01-23T07:07:03.197Z,42.23
2019-01-23T07:07:36.935Z,42.40
2019-01-23T07:08:10.482Z,41.60
2019-01-23T07:08:44.018Z,42.00
2019-01-23T07:09:17.558Z,41.55
2019-01-23T07:09:51.187Z,42.05
2019-01-23T07:10:25.492Z,42.27
2019-01-23T07:10:59.017Z,44.03
2019-01-23T07:11:32.599Z,42.58
2019-01-23T07:12:06.191Z,44.27
2019-01-23T07:12:39.773Z,44.08
2019-01-23T07:13:13.271Z,47.03
2019-01-23T07:13:46.791Z,42.95
2019-01-23T07:14:20.299Z,45.03
2019-01-23T07:14:54.032Z,44.45
2019-01-23T07:15:27.803Z,43.80
2019-01-23T07:16:01.563Z,44.67